YMAY Airport Information

Runway Information
Runway 07 Length 6234 ft width 98 ft
Elevation 539 ft Threshold 0 ft Heading 81
Runway 25 Length 6234 ft Width 98 ft
Elevation 531 ft Threshold 0 ft Heading 261
Airport Frequencies
Type ATIS Name ATIS Frequency 115.6 MHZ
Type CTAF Name CTAF Frequency 124.2 MHZ
Type FSS Name MELBOURNE Frequency 125.2 MHZ
Type TWR Name TWR Frequency 124.2 MHZ
Airport Navaids
Type VOR-DME Name Albury Frequency 115600 KHZ
Type NDB Name Albury Frequency 236 KHZ
Airport Weather Information & NOTAM
ADDS - METARS form results

(0439 UTC 04 July 2020)
Data provider http://aviationweather.gov/metar/data/
 
METAR text: YMAY 040400Z AUTO 29009KT 9999 // BKN027 BKN030 OVC042 10/07 Q1023
Conditions at: YMAY (ALBURY AIRPORT , AU) observed 0400 UTC 04 July 2020
Temperature: 10.0°C (50°F)
Dewpoint: 7.0°C (45°F) [RH = 82%]
Pressure (altimeter): 30.21 inches Hg (1023.0 mb)
Winds: from the WNW (290 degrees) at 10 MPH (9 knots; 4.6 m/s)
Visibility: 6 or more miles (10+ km)
Ceiling: 2700 feet AGL
Clouds: broken clouds at 2700 feet AGL
broken clouds at 3000 feet AGL
overcast cloud deck at 4200 feet AGL
Weather: no significant weather observed at this time